Metar GG30 METAR message from awiacja.imgw.pl Metar G30 EPGD METAR EPGD 240730Z 25007KT 210V270 9999 FEW005 BKN007 09/08 Q1009 =